Flight Track Log - Related Links

Times and Time Zones

All times are in EDT time to prevent confusion due to time zone crossing. See the SWA2383 flight status page for this flight to view local times or setup timezone preferences in your user account.

Time Position Orientation Groundspeed Altitude Reporting Facility
EDT Latitude Longitude Course Direction KTS MPH feet Rate Location/Type
Sat 08:18:20 PM 33.6536 -117.8825 195° South 141 162 1,500  Level Los Angeles Center
Sat 08:19:22 PM 33.6133 -117.8956 195° South 149 171 3,100 1,597 Climbing Los Angeles Center
Sat 08:20:24 PM 33.5497 -117.9214 199° South 210 242 4,800 2,419 Climbing Los Angeles Center
Sat 08:21:26 PM 33.4856 -117.9728 214° Southwest 260 299 8,100 3,097 Climbing Los Angeles Center
Sat 08:22:28 PM 33.4153 -118.0272 213° Southwest 288 331 11,200 3,024 Climbing Los Angeles Center
Sat 08:23:29 PM 33.3417 -118.1078 222° Southwest 352 405 14,300 3,268 Climbing Los Angeles Center
Sat 08:24:31 PM 33.3742 -118.2142 290° West 358 412 17,900 3,242 Climbing Los Angeles Center
Sat 08:25:33 PM 33.4408 -118.3067 311° West 365 420 21,000 2,855 Climbing Los Angeles Center
Sat 08:26:35 PM 33.5125 -118.4033 312° West 379 436 23,800 2,661 Climbing Los Angeles Center
Sat 08:27:37 PM 33.5878 -118.5056 311° West 398 458 26,500 2,323 Climbing Los Angeles Center
Sat 08:28:39 PM 33.6658 -118.6111 312° West 411 473 28,600 2,177 Climbing Los Angeles Center
Sat 08:29:41 PM 33.7606 -118.7406 311° West 425 489 31,000 2,439 Climbing Los Angeles Center
Sat 08:30:42 PM 33.8392 -118.8456 312° West 422 486 33,600 2,341 Climbing Los Angeles Center
Sat 08:31:44 PM 33.9147 -118.9489 311° West 414 476 35,800 1,887 Climbing Los Angeles Center
Sat 08:32:46 PM 33.9883 -119.0503 311° West 404 465 37,500 1,065 Climbing Los Angeles Center
Sat 08:33:48 PM 34.0619 -119.1525 311° West 404 465 38,000 242 Climbing Los Angeles Center
Sat 08:34:50 PM 34.1442 -119.2478 316° Northwest 407 468 38,000  Level Los Angeles Center
Sat 08:35:51 PM 34.2364 -119.3292 324° Northwest 408 470 38,000  Level Los Angeles Center
Sat 08:36:53 PM 34.3447 -119.4311 322° Northwest 412 474 38,000  Level Los Angeles Center
Sat 08:37:55 PM 34.4336 -119.5158 322° Northwest 408 470 38,000  Level Los Angeles Center
Sat 08:38:57 PM 34.5231 -119.5986 323° Northwest 407 468 38,000  Level Los Angeles Center
Sat 08:39:58 PM 34.6114 -119.6822 322° Northwest 405 466 38,000  Level Los Angeles Center
Sat 08:41:00 PM 34.6947 -119.7606 322° Northwest 405 466 38,000  Level Los Angeles Center
Sat 08:42:02 PM 34.8011 -119.8622 322° Northwest 405 466 38,000  Level Los Angeles Center
Sat 08:43:04 PM 34.8889 -119.9458 322° Northwest 403 464 38,000  Level Los Angeles Center
Sat 08:44:17 PM 34.9772 -120.0303 322° Northwest 403 464 38,000  Level Los Angeles Center
Sat 08:45:19 PM 35.0783 -120.1261 322° Northwest 402 463 38,000  Level Los Angeles Center
Sat 08:46:21 PM 35.1664 -120.2117 322° Northwest 406 467 38,000  Level Los Angeles Center
Sat 08:47:35 PM 35.2736 -120.3142 322° Northwest 409 471 38,000  Level Los Angeles Center
Sat 08:48:37 PM 35.3811 -120.4186 322° Northwest 412 474 38,000 -103 Level Los Angeles Center
Sat 08:49:31 PM 35.4656 -120.5053 320° Northwest 419 482 37,800 -626 Descending Oakland Center
Sat 08:50:32 PM 35.5544 -120.5903 322° Northwest 407 468 36,800 -934 Descending Oakland Center
Sat 08:51:33 PM 35.6450 -120.6786 322° Northwest 414 476 35,900 -934 Descending Oakland Center
Sat 08:52:34 PM 35.7369 -120.7689 321° Northwest 421 484 34,900 -984 Descending Oakland Center
Sat 08:53:35 PM 35.8292 -120.8592 322° Northwest 423 487 33,900 -984 Descending Oakland Center
Sat 08:54:36 PM 35.9214 -120.9500 321° Northwest 425 489 32,900 -1,721 Descending Oakland Center
Sat 08:55:37 PM 36.0147 -121.0400 322° Northwest 423 487 30,400 -2,410 Descending Oakland Center
Sat 08:56:38 PM 36.1086 -121.1194 326° Northwest 408 470 28,000 -2,311 Descending Oakland Center
Sat 08:57:39 PM 36.1978 -121.1958 325° Northwest 393 452 25,700 -2,213 Descending Oakland Center
Sat 08:58:40 PM 36.2817 -121.2692 325° Northwest 373 429 23,500 -2,115 Descending Oakland Center
Sat 08:59:41 PM 36.3633 -121.3408 325° Northwest 358 412 21,400 -2,508 Descending Oakland Center
Sat 09:00:42 PM 36.4447 -121.4061 327° Northwest 349 402 18,400 -2,951 Descending Oakland Center
Sat 09:01:43 PM 36.5608 -121.4508 343° North 359 413 15,400 -2,459 Descending Oakland Center
Sat 09:02:44 PM 36.6517 -121.4908 341° North 345 397 13,400 -1,967 Descending Oakland Center
Sat 09:03:45 PM 36.7383 -121.5269 342° North 328 377 11,400 -1,574 Descending Oakland Center
Sat 09:04:46 PM 36.8189 -121.5639 340° North 312 359 10,200 -984 Descending Oakland Center
Sat 09:05:47 PM 36.8825 -121.5908 341° North 280 322 9,400 -1,033 Descending Oakland Center
Sat 09:06:48 PM 36.9500 -121.6214 340° North 265 305 8,100 -1,279 Descending Oakland Center
Sat 09:07:49 PM 37.0164 -121.6494 341° North 255 293 6,800 -1,230 Descending Oakland Center
Sat 09:08:50 PM 37.0967 -121.6839 341° North 254 292 5,600 -977 Descending Oakland Center
Sat 09:09:15 PM 37.1333 -121.7000 341° North 242 278 5,400 -492 Descending Northern Cal TRACON
Sat 09:09:51 PM 37.1589 -121.7089 345° North 244 281 5,100 -866 Descending Oakland Center
Sat 09:10:52 PM 37.2053 -121.7561 321° Northwest 229 264 4,000 -1,140 Descending Oakland Center
Sat 09:11:52 PM 37.2514 -121.8097 317° Northwest 226 260 2,800 -1,140 Descending Oakland Center
Sat 09:12:53 PM 37.2956 -121.8564 320° Northwest 219 252 1,700 -934 Descending Oakland Center
Sat 09:13:54 PM 37.3239 -121.8894 317° Northwest 168 193 900 -738 Descending Oakland Center
Sat 09:14:55 PM 37.3519 -121.9192 320° Northwest 145 167 200 -689 Descending Oakland Center
Sat 09:16:00 PM 37.3500 -121.9167 North  Level FlightAware Approximate
Sat 09:23:00 PM 37.3627 -121.9291 North  Level Estimated

Login

Don't have an account? Register now (free) for customized features, flight alerts, and more!